Lybster, United Kingdom
Current Conditions -  °F | °C
As of 9:50 PM on Saturday 25 Oct 2014 (Local Time) from EGPC Reporting Station
Clear Clear  
Wind Chill: 42°   Ceiling: Unl
Heat Index: 48°   Visibility: 6mi
Dew Point: 43°   Wind: 18mph
Humidity: 82%   Direction: 230°SW
Pressure: 29.38"   Gusts: NA
Location:  58.3°N, 3.28°W
Report Text: EGPC 252050Z AUTO 23016KT 200V260 9999 NCD 09/06 Q0995
Loading
Personal Weather Stations






























Interactive Weather Map
Tropical Storm Tracking
New forecast layout! Learn more

10-Day Weather Forecast

Advertisements
Track Severe Weather on mobile